createdAt,value
2019-05-14T00:01:58.277Z,40.90
2019-05-14T00:04:44.479Z,41.30
2019-05-14T00:07:32.103Z,41.30
2019-05-14T00:10:21.842Z,41.90
2019-05-14T00:13:12.035Z,42.10
2019-05-14T00:15:58.262Z,42.60
2019-05-14T00:18:45.469Z,42.50
2019-05-14T00:21:31.836Z,42.60
2019-05-14T00:24:18.098Z,42.80
2019-05-14T00:27:04.294Z,43.20
2019-05-14T00:29:51.843Z,44.20
2019-05-14T00:32:37.872Z,45.60
2019-05-14T00:35:23.913Z,45.60
2019-05-14T00:38:11.890Z,45.50
2019-05-14T00:40:58.129Z,45.50
2019-05-14T00:43:44.150Z,45.50
2019-05-14T00:46:31.566Z,45.50
2019-05-14T00:49:17.817Z,45.60
2019-05-14T00:52:03.844Z,45.60
2019-05-14T00:54:51.993Z,44.70
2019-05-14T00:57:38.014Z,44.80
2019-05-14T01:00:23.964Z,45.50
2019-05-14T01:03:11.120Z,45.60
2019-05-14T01:05:57.333Z,46.50
2019-05-14T01:08:43.316Z,47.10
2019-05-14T01:11:31.339Z,46.50
2019-05-14T01:14:21.108Z,46.30
2019-05-14T01:17:08.650Z,47.00
2019-05-14T01:19:54.740Z,47.10
2019-05-14T01:22:42.233Z,47.20
2019-05-14T01:25:28.513Z,47.70
2019-05-14T01:28:14.705Z,47.70
2019-05-14T01:31:01.294Z,48.00
2019-05-14T01:33:47.854Z,47.80
2019-05-14T01:36:34.126Z,48.20
2019-05-14T01:39:21.324Z,47.70
2019-05-14T01:42:12.179Z,47.80
2019-05-14T01:44:57.442Z,48.40
2019-05-14T01:47:43.504Z,47.50
2019-05-14T01:50:29.490Z,47.50
2019-05-14T01:53:15.472Z,47.30
2019-05-14T01:56:01.900Z,47.00
2019-05-14T01:58:48.210Z,47.10
2019-05-14T02:01:34.389Z,47.50
2019-05-14T02:04:22.099Z,48.20
2019-05-14T02:07:08.174Z,48.50
2019-05-14T02:09:54.233Z,49.60
2019-05-14T02:12:42.302Z,49.50
2019-05-14T02:15:37.123Z,49.50
2019-05-14T02:18:16.466Z,49.50
2019-05-14T02:21:02.596Z,48.40
2019-05-14T02:23:51.360Z,48.20
2019-05-14T02:26:37.950Z,47.80
2019-05-14T02:29:24.261Z,47.00
2019-05-14T02:32:11.075Z,47.50
2019-05-14T02:34:58.936Z,47.60
2019-05-14T02:37:45.443Z,47.60
2019-05-14T02:40:31.865Z,47.40
2019-05-14T02:43:20.086Z,47.10
2019-05-14T02:46:15.894Z,47.50
2019-05-14T02:48:55.370Z,48.60
2019-05-14T02:51:41.658Z,49.40
2019-05-14T02:54:29.811Z,50.00
2019-05-14T02:57:16.124Z,49.50
2019-05-14T03:00:02.172Z,49.20
2019-05-14T03:02:50.007Z,49.40
2019-05-14T03:05:36.197Z,49.40
2019-05-14T03:08:22.530Z,49.20
2019-05-14T03:11:09.456Z,48.70
2019-05-14T03:13:55.547Z,49.00
2019-05-14T03:16:41.525Z,49.40
2019-05-14T03:19:29.828Z,49.80
2019-05-14T03:22:15.226Z,50.00
2019-05-14T03:25:01.206Z,50.20
2019-05-14T03:27:49.677Z,49.80
2019-05-14T03:30:35.370Z,49.60
2019-05-14T03:33:22.532Z,49.60
2019-05-14T03:36:17.231Z,50.00
2019-05-14T03:38:59.390Z,49.90
2019-05-14T03:41:45.206Z,49.90
2019-05-14T03:44:31.373Z,49.90
2019-05-14T03:47:19.598Z,49.70
2019-05-14T03:50:05.623Z,50.00
2019-05-14T03:52:51.579Z,50.00
2019-05-14T03:55:40.308Z,50.10
2019-05-14T03:58:25.827Z,50.80
2019-05-14T04:01:12.897Z,50.90
2019-05-14T04:03:59.489Z,51.00
2019-05-14T04:06:49.371Z,50.80
2019-05-14T04:09:35.813Z,51.20
2019-05-14T04:12:24.237Z,51.20
2019-05-14T04:15:10.307Z,51.50
2019-05-14T04:17:59.688Z,51.90
2019-05-14T04:20:50.048Z,52.00
2019-05-14T04:23:39.697Z,52.30
2019-05-14T04:26:30.250Z,51.70
2019-05-14T04:29:19.717Z,51.50
2019-05-14T04:32:09.395Z,51.20
2019-05-14T04:34:59.441Z,51.60
2019-05-14T04:37:43.691Z,51.80
2019-05-14T04:40:29.896Z,51.80
2019-05-14T04:43:19.043Z,51.70
2019-05-14T04:46:04.441Z,51.30
2019-05-14T04:48:51.307Z,51.20
2019-05-14T04:51:39.696Z,51.00
2019-05-14T04:54:25.280Z,51.40
2019-05-14T04:57:11.399Z,51.00
2019-05-14T04:59:59.828Z,51.40
2019-05-14T05:02:45.543Z,52.00
2019-05-14T05:05:31.580Z,52.40
2019-05-14T05:08:19.996Z,52.00
2019-05-14T05:11:09.073Z,52.40
2019-05-14T05:13:53.902Z,52.40
2019-05-14T05:16:39.881Z,53.70
2019-05-14T05:19:28.844Z,53.30
2019-05-14T05:22:14.069Z,52.90
2019-05-14T05:25:00.088Z,52.50
2019-05-14T05:27:48.546Z,53.80
2019-05-14T05:30:34.506Z,52.40
2019-05-14T05:33:20.515Z,51.70
2019-05-14T05:36:09.195Z,51.60
2019-05-14T05:38:54.765Z,51.50
2019-05-14T05:41:40.835Z,52.20
2019-05-14T05:44:28.698Z,51.50
2019-05-14T05:47:15.042Z,51.50
2019-05-14T05:50:01.137Z,51.40
2019-05-14T05:52:49.886Z,51.40
2019-05-14T05:55:35.474Z,49.90
2019-05-14T05:58:21.417Z,49.00
2019-05-14T06:01:09.568Z,48.50
2019-05-14T06:03:55.633Z,48.10
2019-05-14T06:06:41.815Z,50.40
2019-05-14T06:09:28.635Z,49.20
2019-05-14T06:12:14.953Z,47.10
2019-05-14T06:15:00.930Z,46.80
2019-05-14T06:17:49.020Z,48.00
2019-05-14T06:20:35.169Z,47.50
2019-05-14T06:23:21.154Z,46.80
2019-05-14T06:26:11.364Z,47.10
2019-05-14T06:28:55.593Z,45.50
2019-05-14T06:31:41.578Z,45.50
2019-05-14T06:34:29.125Z,45.70
2019-05-14T06:37:15.504Z,45.70
2019-05-14T06:40:01.465Z,45.80
2019-05-14T06:42:48.590Z,46.00
2019-05-14T06:45:34.622Z,46.10
2019-05-14T06:48:30.777Z,44.40
2019-05-14T06:51:08.980Z,43.10
2019-05-14T06:53:55.398Z,41.30
2019-05-14T06:56:41.345Z,39.60
2019-05-14T06:59:28.764Z,39.60
2019-05-14T07:02:15.208Z,41.20
2019-05-14T07:05:01.285Z,39.50
2019-05-14T07:07:49.375Z,38.20
2019-05-14T07:10:35.401Z,37.00
2019-05-14T07:13:21.570Z,35.70
2019-05-14T07:16:09.051Z,36.70
2019-05-14T07:18:55.450Z,36.40
2019-05-14T07:21:41.534Z,39.70
2019-05-14T07:24:28.335Z,37.60
2019-05-14T07:27:14.813Z,36.00
2019-05-14T07:30:00.641Z,36.10
2019-05-14T07:32:48.460Z,35.40
2019-05-14T07:35:35.241Z,35.10
2019-05-14T07:38:21.547Z,35.00
2019-05-14T07:41:09.253Z,34.50
2019-05-14T07:43:55.764Z,33.50
2019-05-14T07:46:42.327Z,35.50
2019-05-14T07:49:29.145Z,36.10
2019-05-14T07:52:15.414Z,32.30
2019-05-14T07:55:01.622Z,33.80
2019-05-14T07:57:48.182Z,33.80
2019-05-14T08:00:34.483Z,32.40
2019-05-14T08:03:20.855Z,32.10
2019-05-14T08:06:08.361Z,31.50
2019-05-14T08:08:54.645Z,32.80
2019-05-14T08:11:40.701Z,33.10
2019-05-14T08:14:28.902Z,31.20
2019-05-14T08:17:14.890Z,32.60
2019-05-14T08:20:00.806Z,30.00
2019-05-14T08:22:49.002Z,33.40
2019-05-14T08:25:35.044Z,31.60
2019-05-14T08:28:21.321Z,30.30
2019-05-14T08:31:09.506Z,30.40
2019-05-14T08:33:55.422Z,31.50
2019-05-14T08:36:41.349Z,31.60
2019-05-14T08:39:28.623Z,30.60
2019-05-14T08:42:15.134Z,29.40
2019-05-14T08:45:04.886Z,29.50
2019-05-14T08:47:49.142Z,28.60
2019-05-14T08:50:35.273Z,29.90
2019-05-14T08:53:23.266Z,28.90
2019-05-14T08:56:12.311Z,28.30
2019-05-14T08:58:59.120Z,28.50
2019-05-14T09:01:58.734Z,27.40
2019-05-14T09:04:35.992Z,27.10
2019-05-14T09:07:22.437Z,28.60
2019-05-14T09:10:09.603Z,27.60
2019-05-14T09:12:58.205Z,29.30
2019-05-14T09:15:44.199Z,27.80
2019-05-14T09:18:30.242Z,27.00
2019-05-14T09:21:16.325Z,28.40
2019-05-14T09:24:03.189Z,29.40
2019-05-14T09:26:49.322Z,27.90
2019-05-14T09:29:35.236Z,28.00
2019-05-14T09:32:21.124Z,28.00
2019-05-14T09:35:09.823Z,28.80
2019-05-14T09:37:55.831Z,27.30
2019-05-14T09:40:41.825Z,27.20
2019-05-14T09:43:28.630Z,27.40
2019-05-14T09:46:15.026Z,26.10
2019-05-14T09:49:01.005Z,26.90
2019-05-14T09:51:48.901Z,26.60
2019-05-14T09:54:35.177Z,28.10
2019-05-14T09:57:21.196Z,25.40
2019-05-14T10:00:09.047Z,24.90
2019-05-14T10:02:55.386Z,26.00
2019-05-14T10:05:41.363Z,24.80
2019-05-14T10:08:28.600Z,25.30
2019-05-14T10:11:14.697Z,23.80
2019-05-14T10:14:00.641Z,24.30
2019-05-14T10:16:49.060Z,27.40
2019-05-14T10:19:34.815Z,26.10
2019-05-14T10:22:20.878Z,24.50
2019-05-14T10:25:09.222Z,25.90
2019-05-14T10:27:55.645Z,25.50
2019-05-14T10:30:41.938Z,25.30
2019-05-14T10:33:28.748Z,26.60
2019-05-14T10:36:15.145Z,27.90
2019-05-14T10:39:01.281Z,24.60
2019-05-14T10:41:47.537Z,23.10
2019-05-14T10:44:33.539Z,24.80
2019-05-14T10:47:19.606Z,23.70
2019-05-14T10:50:06.006Z,23.50
2019-05-14T10:52:51.768Z,22.50
2019-05-14T10:55:38.674Z,23.40
2019-05-14T10:58:25.196Z,23.40
2019-05-14T11:01:11.595Z,24.40
2019-05-14T11:03:57.898Z,24.20
2019-05-14T11:06:43.924Z,23.20
2019-05-14T11:09:29.857Z,23.20
2019-05-14T11:12:19.027Z,20.70
2019-05-14T11:15:05.023Z,22.30
2019-05-14T11:17:51.161Z,23.20
2019-05-14T11:20:42.261Z,22.50
2019-05-14T11:23:29.396Z,21.60
2019-05-14T11:26:14.408Z,23.40
2019-05-14T11:29:00.463Z,21.90
2019-05-14T11:31:48.460Z,20.80
2019-05-14T11:34:34.533Z,24.40
2019-05-14T11:37:20.501Z,20.70
2019-05-14T11:40:08.729Z,18.60
2019-05-14T11:42:54.538Z,20.10
2019-05-14T11:45:40.581Z,21.60
2019-05-14T11:48:26.740Z,21.10
2019-05-14T11:51:12.721Z,21.90
2019-05-14T11:53:58.918Z,23.30
2019-05-14T11:56:45.127Z,22.50
2019-05-14T11:59:31.275Z,22.90
2019-05-14T12:02:19.418Z,23.40
2019-05-14T12:05:08.856Z,21.90
2019-05-14T12:07:55.341Z,21.70
2019-05-14T12:10:41.599Z,23.10
2019-05-14T12:13:32.105Z,22.40
2019-05-14T12:16:16.229Z,22.80
2019-05-14T12:19:02.160Z,21.70
2019-05-14T12:22:02.791Z,21.40
2019-05-14T12:24:38.548Z,23.10
2019-05-14T12:27:24.346Z,21.50
2019-05-14T12:30:12.099Z,23.20
2019-05-14T12:32:58.988Z,23.40
2019-05-14T12:35:45.002Z,23.60
2019-05-14T12:38:31.143Z,23.80
2019-05-14T12:41:19.296Z,21.50
2019-05-14T12:44:05.358Z,23.00
2019-05-14T12:46:51.454Z,22.50
2019-05-14T12:49:38.759Z,20.70
2019-05-14T12:52:26.175Z,22.20
2019-05-14T12:55:12.637Z,21.10
2019-05-14T12:57:59.782Z,21.70
2019-05-14T13:00:48.488Z,20.30
2019-05-14T13:03:34.059Z,21.10
2019-05-14T13:06:20.252Z,22.10
2019-05-14T13:09:06.262Z,23.40
2019-05-14T13:11:52.233Z,22.70
2019-05-14T13:14:39.458Z,20.90
2019-05-14T13:17:27.972Z,21.30
2019-05-14T13:20:14.248Z,20.00
2019-05-14T13:23:00.519Z,19.50
2019-05-14T13:25:46.518Z,21.60
2019-05-14T13:28:32.549Z,20.60
2019-05-14T13:31:18.725Z,20.50
2019-05-14T13:34:04.651Z,20.60
2019-05-14T13:36:50.827Z,21.60
2019-05-14T13:39:39.782Z,20.30
2019-05-14T13:42:25.153Z,20.20
2019-05-14T13:45:11.961Z,21.80
2019-05-14T13:47:59.096Z,20.60
2019-05-14T13:50:45.329Z,21.60
2019-05-14T13:53:31.375Z,20.40
2019-05-14T13:56:18.945Z,19.80
2019-05-14T13:59:05.203Z,21.30
2019-05-14T14:01:54.671Z,21.40
2019-05-14T14:04:39.358Z,19.20
2019-05-14T14:07:25.313Z,21.30
2019-05-14T14:10:11.442Z,20.40
2019-05-14T14:12:59.770Z,22.90
2019-05-14T14:15:45.574Z,21.00
2019-05-14T14:18:31.590Z,21.10
2019-05-14T14:21:19.598Z,19.20
2019-05-14T14:24:05.833Z,20.10
2019-05-14T14:26:51.827Z,20.50
2019-05-14T14:29:39.537Z,19.50
2019-05-14T14:32:25.611Z,20.90
2019-05-14T14:35:11.756Z,20.30
2019-05-14T14:37:59.134Z,22.10
2019-05-14T14:40:48.482Z,19.50
2019-05-14T14:43:34.246Z,20.10
2019-05-14T14:46:20.726Z,19.90
2019-05-14T14:49:06.634Z,18.90
2019-05-14T14:51:52.718Z,19.30
2019-05-14T14:54:38.745Z,22.20
2019-05-14T14:57:24.797Z,20.70
2019-05-14T15:00:11.587Z,19.70
2019-05-14T15:02:59.688Z,21.50
2019-05-14T15:05:49.535Z,18.80
2019-05-14T15:08:34.239Z,19.40
2019-05-14T15:11:20.311Z,18.80
2019-05-14T15:14:08.460Z,20.30
2019-05-14T15:16:54.311Z,18.80
2019-05-14T15:19:40.441Z,21.20
2019-05-14T15:22:30.454Z,20.50
2019-05-14T15:25:14.541Z,20.50
2019-05-14T15:28:00.838Z,20.40
2019-05-14T15:30:49.628Z,21.00
2019-05-14T15:33:34.930Z,21.20
2019-05-14T15:36:20.987Z,21.50
2019-05-14T15:39:09.744Z,21.20
2019-05-14T15:41:55.611Z,22.10
2019-05-14T15:44:54.473Z,23.00
2019-05-14T15:47:30.049Z,20.90
2019-05-14T15:50:16.157Z,19.70
2019-05-14T15:53:02.146Z,21.10
2019-05-14T15:55:49.086Z,21.50
2019-05-14T15:58:35.281Z,20.60
2019-05-14T16:01:21.389Z,21.10
2019-05-14T16:04:11.190Z,20.70
2019-05-14T16:06:55.603Z,20.50
2019-05-14T16:09:41.639Z,19.20
2019-05-14T16:12:28.672Z,19.50
2019-05-14T16:15:15.922Z,20.50
2019-05-14T16:18:09.668Z,21.20
2019-05-14T16:20:50.169Z,20.30
2019-05-14T16:23:38.599Z,21.30
2019-05-14T16:26:24.249Z,20.80
2019-05-14T16:29:10.305Z,19.90
2019-05-14T16:31:58.179Z,21.00
2019-05-14T16:34:44.375Z,20.50
2019-05-14T16:37:30.533Z,20.00
2019-05-14T16:40:18.959Z,19.60
2019-05-14T16:43:04.553Z,20.00
2019-05-14T16:45:50.793Z,20.40
2019-05-14T16:48:39.404Z,20.50
2019-05-14T16:51:24.947Z,20.70
2019-05-14T16:54:11.049Z,19.90
2019-05-14T16:56:57.025Z,19.70
2019-05-14T16:59:43.129Z,21.40
2019-05-14T17:02:29.728Z,20.60
2019-05-14T17:05:15.966Z,22.00
2019-05-14T17:08:01.978Z,21.90
2019-05-14T17:10:48.369Z,21.90
2019-05-14T17:13:34.669Z,23.00
2019-05-14T17:16:20.814Z,21.80
2019-05-14T17:19:09.155Z,20.40
2019-05-14T17:21:54.998Z,21.00
2019-05-14T17:24:40.980Z,21.60
2019-05-14T17:27:28.545Z,21.40
2019-05-14T17:30:18.184Z,21.20
2019-05-14T17:33:04.007Z,22.60
2019-05-14T17:35:50.198Z,22.10
2019-05-14T17:38:38.878Z,22.10
2019-05-14T17:41:24.257Z,22.40
2019-05-14T17:44:10.422Z,23.10
2019-05-14T17:46:58.544Z,22.20
2019-05-14T17:49:44.513Z,22.20
2019-05-14T17:52:30.645Z,21.90
2019-05-14T17:55:18.739Z,22.10
2019-05-14T17:58:05.040Z,22.00
2019-05-14T18:00:51.108Z,21.50
2019-05-14T18:03:39.680Z,21.40
2019-05-14T18:06:25.236Z,21.80
2019-05-14T18:09:11.361Z,21.80
2019-05-14T18:11:58.583Z,21.80
2019-05-14T18:14:44.997Z,21.90
2019-05-14T18:17:31.167Z,22.00
2019-05-14T18:20:17.183Z,21.50
2019-05-14T18:23:03.186Z,22.20
2019-05-14T18:26:03.393Z,22.20
2019-05-14T18:28:38.306Z,23.20
2019-05-14T18:31:24.558Z,23.40
2019-05-14T18:34:10.621Z,23.60
2019-05-14T18:37:00.085Z,24.80
2019-05-14T18:39:48.161Z,25.20
2019-05-14T18:42:33.877Z,25.30
2019-05-14T18:45:20.035Z,25.00
2019-05-14T18:48:08.501Z,25.60
2019-05-14T18:50:55.580Z,24.20
2019-05-14T18:53:41.717Z,24.80
2019-05-14T18:56:29.190Z,23.90
2019-05-14T18:59:20.949Z,25.00
2019-05-14T19:02:03.877Z,25.00
2019-05-14T19:04:49.932Z,25.30
2019-05-14T19:07:35.977Z,25.80
2019-05-14T19:10:22.072Z,26.50
2019-05-14T19:13:08.809Z,25.90
2019-05-14T19:15:55.123Z,26.60
2019-05-14T19:18:41.264Z,26.30
2019-05-14T19:21:28.609Z,26.40
2019-05-14T19:24:14.958Z,26.30
2019-05-14T19:27:01.129Z,26.30
2019-05-14T19:29:48.444Z,26.20
2019-05-14T19:32:34.963Z,26.30
2019-05-14T19:35:21.110Z,28.00
2019-05-14T19:38:08.906Z,29.20
2019-05-14T19:40:55.134Z,27.70
2019-05-14T19:43:41.364Z,26.90
2019-05-14T19:46:29.149Z,26.50
2019-05-14T19:49:15.292Z,27.00
2019-05-14T19:52:01.490Z,25.90
2019-05-14T19:54:48.870Z,27.40
2019-05-14T19:57:34.963Z,27.20
2019-05-14T20:00:23.533Z,26.00
2019-05-14T20:03:09.291Z,27.00
2019-05-14T20:05:55.396Z,26.90
2019-05-14T20:08:41.633Z,27.10
2019-05-14T20:11:28.974Z,27.40
2019-05-14T20:14:15.193Z,28.00
2019-05-14T20:17:01.368Z,27.40
2019-05-14T20:19:49.410Z,28.00
2019-05-14T20:22:35.359Z,28.20
2019-05-14T20:25:21.563Z,27.70
2019-05-14T20:28:08.152Z,27.40
2019-05-14T20:30:55.052Z,28.10
2019-05-14T20:33:41.165Z,27.60
2019-05-14T20:36:28.177Z,27.80
2019-05-14T20:39:14.134Z,27.80
2019-05-14T20:42:00.793Z,27.50
2019-05-14T20:44:49.013Z,26.70
2019-05-14T20:47:34.975Z,27.50
2019-05-14T20:50:21.171Z,27.90
2019-05-14T20:53:08.459Z,28.20
2019-05-14T20:55:54.693Z,28.10
2019-05-14T20:58:40.913Z,28.30
2019-05-14T21:01:29.046Z,29.10
2019-05-14T21:04:14.940Z,28.60
2019-05-14T21:07:01.225Z,29.00
2019-05-14T21:09:49.241Z,29.30
2019-05-14T21:12:35.226Z,29.30
2019-05-14T21:15:21.423Z,29.10
2019-05-14T21:18:08.384Z,30.00
2019-05-14T21:20:54.600Z,30.00
2019-05-14T21:23:40.716Z,30.00
2019-05-14T21:26:29.026Z,30.00
2019-05-14T21:29:14.753Z,29.40
2019-05-14T21:32:01.589Z,29.40
2019-05-14T21:34:49.108Z,29.90
2019-05-14T21:37:35.400Z,30.00
2019-05-14T21:40:21.525Z,30.20
2019-05-14T21:43:11.027Z,30.50
2019-05-14T21:45:55.504Z,30.80
2019-05-14T21:48:41.550Z,30.90
2019-05-14T21:51:28.334Z,31.20
2019-05-14T21:54:14.736Z,32.40
2019-05-14T21:57:01.314Z,32.00
2019-05-14T21:59:48.011Z,32.50
2019-05-14T22:02:35.028Z,31.50
2019-05-14T22:05:21.372Z,32.00
2019-05-14T22:08:08.839Z,33.10
2019-05-14T22:10:54.956Z,32.60
2019-05-14T22:13:41.125Z,33.30
2019-05-14T22:16:28.082Z,33.50
2019-05-14T22:19:14.049Z,34.20
2019-05-14T22:22:00.209Z,33.40
2019-05-14T22:24:46.238Z,33.30
2019-05-14T22:27:32.345Z,33.50
2019-05-14T22:30:20.726Z,33.30
2019-05-14T22:33:08.507Z,33.30
2019-05-14T22:35:55.263Z,33.30
2019-05-14T22:38:41.328Z,33.40
2019-05-14T22:41:29.076Z,33.70
2019-05-14T22:44:15.418Z,33.60
2019-05-14T22:47:02.199Z,33.60
2019-05-14T22:49:48.531Z,34.20
2019-05-14T22:52:34.647Z,34.30
2019-05-14T22:55:20.821Z,36.20
2019-05-14T22:58:09.949Z,35.20
2019-05-14T23:01:06.689Z,35.50
2019-05-14T23:03:42.975Z,35.40
2019-05-14T23:06:29.057Z,35.50
2019-05-14T23:09:18.490Z,35.60
2019-05-14T23:12:03.105Z,36.00
2019-05-14T23:14:49.143Z,35.90
2019-05-14T23:17:35.129Z,36.00
2019-05-14T23:20:21.517Z,36.60
2019-05-14T23:23:09.544Z,36.20
2019-05-14T23:25:58.900Z,36.30
2019-05-14T23:28:46.094Z,35.70
2019-05-14T23:31:33.405Z,36.00
2019-05-14T23:34:19.854Z,36.00
2019-05-14T23:37:08.230Z,36.00
2019-05-14T23:39:54.904Z,36.30
2019-05-14T23:42:41.085Z,37.00
2019-05-14T23:45:28.474Z,37.30
2019-05-14T23:48:15.014Z,38.40
2019-05-14T23:51:01.453Z,39.10
2019-05-14T23:53:48.342Z,39.30
2019-05-14T23:56:34.671Z,39.30
2019-05-14T23:59:21.190Z,40.00
